Flight Track Log - Related Links

Times and Time Zones

All times are in EDT time to prevent confusion due to time zone crossing. See the N910GT flight status page for this flight to view local times or setup timezone preferences in your user account.


Time Position Orientation Groundspeed Altitude Reporting Facility
EDT Latitude Longitude Course Direction KTS MPH feet Rate Location/Type
Sun 11:06:06 AM 34.0000 -83.3833 337° Northwest 127 146 2,900  Level Atlanta TRACON
Sun 11:07:06 AM 34.0333 -83.4000 337° Northwest 129 148 3,900 950 Climbing Atlanta TRACON
Sun 11:08:06 AM 34.0667 -83.4167 338° Northwest 133 153 4,800 879 Climbing Atlanta TRACON
Sun 11:09:43 AM 34.1122 -83.4417 336° Northwest 131 151 6,200 879 Climbing Atlanta Center
Sun 11:10:43 AM 34.1497 -83.4614 336° Northwest 131 151 7,100 900 Climbing Atlanta Center
Sun 11:11:43 AM 34.1917 -83.4786 341° North 139 160 8,000 450 Climbing Atlanta Center
Sun 11:12:43 AM 34.2356 -83.5011 337° Northwest 153 176 8,000  Level Atlanta Center
Sun 11:13:43 AM 34.2794 -83.5208 340° North 168 193 8,000  Level Atlanta Center
Sun 11:14:43 AM 34.3275 -83.5458 337° Northwest 176 203 8,000  Level Atlanta Center
Sun 11:15:43 AM 34.3736 -83.5656 341° North 176 203 8,000  Level Atlanta Center
Sun 11:16:43 AM 34.4175 -83.5881 337° Northwest 171 197 8,000  Level Atlanta Center
Sun 11:17:43 AM 34.4572 -83.6056 340° North 176 203 8,000  Level Atlanta Center
Sun 11:18:43 AM 34.5031 -83.6278 338° Northwest 171 197 8,000  Level Atlanta Center
Sun 11:19:43 AM 34.5514 -83.6528 337° Northwest 176 203 8,000  Level Atlanta Center
Sun 11:20:43 AM 34.5972 -83.6753 338° Northwest 171 197 8,000  Level Atlanta Center
Sun 11:21:43 AM 34.6433 -83.6953 340° North 171 197 8,000  Level Atlanta Center
Sun 11:22:43 AM 34.6914 -83.7181 339° North 182 209 8,000  Level Atlanta Center
Sun 11:23:43 AM 34.7331 -83.7456 332° Northwest 177 204 8,000  Level Atlanta Center
Sun 11:24:43 AM 34.7750 -83.7783 327° Northwest 177 204 8,000  Level Atlanta Center
Sun 11:25:43 AM 34.8208 -83.8136 328° Northwest 177 204 8,000  Level Atlanta Center
Sun 11:26:43 AM 34.8647 -83.8414 333° Northwest 177 204 8,000  Level Atlanta Center
Sun 11:27:43 AM 34.9064 -83.8717 329° Northwest 177 204 8,000  Level Atlanta Center
Sun 11:28:43 AM 34.9483 -83.9044 327° Northwest 177 204 8,000  Level Atlanta Center
Sun 11:29:43 AM 34.9881 -83.9372 326° Northwest 177 204 8,000  Level Atlanta Center
Sun 11:30:43 AM 35.0297 -83.9678 329° Northwest 177 204 8,000  Level Atlanta Center
Sun 11:31:43 AM 35.0694 -84.0033 324° Northwest 177 204 8,000  Level Atlanta Center
Sun 11:32:43 AM 35.1092 -84.0361 326° Northwest 177 204 8,000  Level Atlanta Center
Sun 11:33:43 AM 35.1486 -84.0692 326° Northwest 177 204 8,000  Level Atlanta Center
Sun 11:34:43 AM 35.1883 -84.1047 324° Northwest 177 204 8,000  Level Atlanta Center
Sun 11:35:43 AM 35.2239 -84.1431 319° Northwest 177 204 8,000  Level Atlanta Center
Sun 11:36:43 AM 35.2656 -84.1736 329° Northwest 172 198 8,000  Level Atlanta Center
Sun 11:37:43 AM 35.3050 -84.2067 326° Northwest 172 198 8,000  Level Atlanta Center
Sun 11:38:43 AM 35.3508 -84.2272 340° North 172 198 8,000  Level Atlanta Center
Sun 11:39:43 AM 35.3989 -84.2400 348° North 172 198 8,000  Level Atlanta Center
Sun 11:40:43 AM 35.4469 -84.2581 343° North 172 198 8,000  Level Atlanta Center
Sun 11:41:43 AM 35.4947 -84.2708 348° North 172 198 8,000  Level Atlanta Center
Sun 11:42:43 AM 35.5428 -84.2889 343° North 172 198 8,000 -75 Level Atlanta Center
Sun 11:44:00 AM 35.6015 -84.3055 347° North  Level FlightAware Approximate
Sun 11:49:41 AM 35.8822 -84.3875 341° North 184 212 7,400  Level Indianapolis Center
Sun 11:50:42 AM 35.9356 -84.3956 353° North 191 220 6,900 -491 Descending Indianapolis Center
Sun 11:51:00 AM 35.9214 -84.3965 347° North  Level FlightAware Approximate
Sun 11:51:31 AM 35.9786 -84.4056 349° North 217 250 6,500  Level Atlanta Center
Sun 11:52:00 AM 35.9672 -84.4096 347° North  Level FlightAware Approximate
Sun 11:52:31 AM 36.0328 -84.4136 353° North 223 257 6,000  Level Atlanta Center
Sun 11:53:00 AM 36.0129 -84.4227 347° North  Level FlightAware Approximate
Sun 11:53:31 AM 36.0806 -84.4164 357° North 198 228 6,000  Level Atlanta Center
Sun 11:54:00 AM 36.0580 -84.4418 341° North  Level FlightAware Approximate
Sun 11:54:31 AM 36.1286 -84.4167 360° North 180 207 6,000  Level Atlanta Center
Sun 11:55:51 AM 36.1911 -84.3989 13° North 166 191 6,000  Level Indianapolis Center
Sun 11:56:52 AM 36.2378 -84.3875 11° North 168 193 6,000 -195 Level Indianapolis Center
Sun 11:57:54 AM 36.2886 -84.3761 10° North 180 207 5,600 -387 Descending Indianapolis Center
Sun 11:58:56 AM 36.3414 -84.3650 10° North 190 219 5,200 -194 Descending Indianapolis Center
Sun 11:59:58 AM 36.3847 -84.3572 North 167 192 5,200 -677 Level Indianapolis Center
Sun 12:01:00 PM 36.3861 -84.3969 272° West 172 198 3,800 -1,024 Descending Indianapolis Center
Sun 12:02:01 PM 36.4039 -84.4483 293° West 165 190 3,100 -488 Descending Indianapolis Center
Sun 12:03:03 PM 36.4275 -84.5033 298° West 157 181 2,800 -194 Descending Indianapolis Center
Sun 12:04:05 PM 36.4328 -84.5508 278° West 152 175 2,700 -244 Descending Indianapolis Center
Sun 12:05:06 PM 36.4311 -84.5919 267° West 148 170 2,300 -393 Descending Indianapolis Center

Login

Don't have an account? Register now (free) for customized features, flight alerts, and more!